sensor_id;sensor_type;location;lat;lon;timestamp;temperature;humidity
52979;DHT22;51106;53.186;6.598;2022-08-19T00:00:58;15.30;99.90
52979;DHT22;51106;53.186;6.598;2022-08-19T00:03:00;15.30;99.90
52979;DHT22;51106;53.186;6.598;2022-08-19T00:05:03;15.30;99.90
52979;DHT22;51106;53.186;6.598;2022-08-19T00:07:06;15.20;99.90
52979;DHT22;51106;53.186;6.598;2022-08-19T00:09:11;15.30;99.90
52979;DHT22;51106;53.186;6.598;2022-08-19T00:11:14;15.30;99.90
52979;DHT22;51106;53.186;6.598;2022-08-19T00:13:26;15.50;99.90
52979;DHT22;51106;53.186;6.598;2022-08-19T00:15:31;15.20;99.90
52979;DHT22;51106;53.186;6.598;2022-08-19T00:17:33;15.10;99.90
52979;DHT22;51106;53.186;6.598;2022-08-19T00:19:36;15.00;99.90
52979;DHT22;51106;53.186;6.598;2022-08-19T00:21:38;14.90;99.90
52979;DHT22;51106;53.186;6.598;2022-08-19T00:23:41;14.90;99.90
52979;DHT22;51106;53.186;6.598;2022-08-19T00:25:44;15.30;99.90
52979;DHT22;51106;53.186;6.598;2022-08-19T00:27:49;14.80;99.90
52979;DHT22;51106;53.186;6.598;2022-08-19T00:29:51;14.80;99.90
52979;DHT22;51106;53.186;6.598;2022-08-19T00:31:54;14.80;99.90
52979;DHT22;51106;53.186;6.598;2022-08-19T00:33:58;14.80;99.90
52979;DHT22;51106;53.186;6.598;2022-08-19T00:36:02;14.80;99.90
52979;DHT22;51106;53.186;6.598;2022-08-19T00:38:07;14.80;99.90
52979;DHT22;51106;53.186;6.598;2022-08-19T00:40:11;14.90;99.90
52979;DHT22;51106;53.186;6.598;2022-08-19T00:42:14;14.90;99.90
52979;DHT22;51106;53.186;6.598;2022-08-19T00:44:21;14.90;99.90
52979;DHT22;51106;53.186;6.598;2022-08-19T00:46:28;14.90;99.90
52979;DHT22;51106;53.186;6.598;2022-08-19T00:48:32;14.80;99.90
52979;DHT22;51106;53.186;6.598;2022-08-19T00:50:35;14.80;99.90
52979;DHT22;51106;53.186;6.598;2022-08-19T00:52:52;14.70;99.90
52979;DHT22;51106;53.186;6.598;2022-08-19T00:54:56;14.70;99.90
52979;DHT22;51106;53.186;6.598;2022-08-19T00:56:59;15.20;99.90
52979;DHT22;51106;53.186;6.598;2022-08-19T00:59:04;14.70;99.90
52979;DHT22;51106;53.186;6.598;2022-08-19T01:01:10;14.70;99.90
52979;DHT22;51106;53.186;6.598;2022-08-19T01:03:16;14.70;99.90
52979;DHT22;51106;53.186;6.598;2022-08-19T01:05:23;14.70;99.90
52979;DHT22;51106;53.186;6.598;2022-08-19T01:07:25;14.80;99.90
52979;DHT22;51106;53.186;6.598;2022-08-19T01:09:28;14.70;99.90
52979;DHT22;51106;53.186;6.598;2022-08-19T01:11:34;14.70;99.90
52979;DHT22;51106;53.186;6.598;2022-08-19T01:13:36;14.80;99.90
52979;DHT22;51106;53.186;6.598;2022-08-19T01:15:54;14.80;99.90
52979;DHT22;51106;53.186;6.598;2022-08-19T01:18:00;14.70;99.90
52979;DHT22;51106;53.186;6.598;2022-08-19T01:20:04;14.70;99.90
52979;DHT22;51106;53.186;6.598;2022-08-19T01:22:26;14.70;99.90
52979;DHT22;51106;53.186;6.598;2022-08-19T01:24:34;14.70;99.90
52979;DHT22;51106;53.186;6.598;2022-08-19T01:26:47;14.70;99.90
52979;DHT22;51106;53.186;6.598;2022-08-19T01:28:53;14.70;99.90
52979;DHT22;51106;53.186;6.598;2022-08-19T01:31:01;14.60;99.90
52979;DHT22;51106;53.186;6.598;2022-08-19T01:33:09;14.70;99.90
52979;DHT22;51106;53.186;6.598;2022-08-19T01:35:12;14.70;99.90
52979;DHT22;51106;53.186;6.598;2022-08-19T01:37:14;14.70;99.90
52979;DHT22;51106;53.186;6.598;2022-08-19T01:39:29;14.60;99.90
52979;DHT22;51106;53.186;6.598;2022-08-19T01:41:31;14.70;99.90
52979;DHT22;51106;53.186;6.598;2022-08-19T01:43:34;14.70;99.90
52979;DHT22;51106;53.186;6.598;2022-08-19T01:45:37;14.80;99.90
52979;DHT22;51106;53.186;6.598;2022-08-19T01:47:42;14.60;99.90
52979;DHT22;51106;53.186;6.598;2022-08-19T01:50:00;14.60;99.90
52979;DHT22;51106;53.186;6.598;2022-08-19T01:52:04;14.70;99.90
52979;DHT22;51106;53.186;6.598;2022-08-19T01:54:08;14.60;99.90
52979;DHT22;51106;53.186;6.598;2022-08-19T01:56:10;14.60;99.90
52979;DHT22;51106;53.186;6.598;2022-08-19T01:58:18;14.60;99.90
52979;DHT22;51106;53.186;6.598;2022-08-19T02:00:24;14.70;99.90
52979;DHT22;51106;53.186;6.598;2022-08-19T02:02:27;14.60;99.90
52979;DHT22;51106;53.186;6.598;2022-08-19T02:04:29;14.50;99.90
52979;DHT22;51106;53.186;6.598;2022-08-19T02:06:30;14.50;99.90
52979;DHT22;51106;53.186;6.598;2022-08-19T02:08:35;14.50;99.90
52979;DHT22;51106;53.186;6.598;2022-08-19T02:10:42;14.50;99.90
52979;DHT22;51106;53.186;6.598;2022-08-19T02:12:45;14.50;99.90
52979;DHT22;51106;53.186;6.598;2022-08-19T02:14:48;14.50;99.90
52979;DHT22;51106;53.186;6.598;2022-08-19T02:16:51;14.40;99.90
52979;DHT22;51106;53.186;6.598;2022-08-19T02:18:53;14.40;99.90
52979;DHT22;51106;53.186;6.598;2022-08-19T02:20:56;14.40;99.90
52979;DHT22;51106;53.186;6.598;2022-08-19T02:22:58;14.50;99.90
52979;DHT22;51106;53.186;6.598;2022-08-19T02:25:00;14.40;99.90
52979;DHT22;51106;53.186;6.598;2022-08-19T02:27:02;14.40;99.90
52979;DHT22;51106;53.186;6.598;2022-08-19T02:29:04;14.30;99.90
52979;DHT22;51106;53.186;6.598;2022-08-19T02:31:12;14.30;99.90
52979;DHT22;51106;53.186;6.598;2022-08-19T02:33:22;14.30;99.90
52979;DHT22;51106;53.186;6.598;2022-08-19T02:35:24;14.30;99.90
52979;DHT22;51106;53.186;6.598;2022-08-19T02:37:26;14.30;99.90
52979;DHT22;51106;53.186;6.598;2022-08-19T02:39:51;14.40;99.90
52979;DHT22;51106;53.186;6.598;2022-08-19T02:41:53;14.30;99.90
52979;DHT22;51106;53.186;6.598;2022-08-19T02:43:56;14.30;99.90
52979;DHT22;51106;53.186;6.598;2022-08-19T02:46:24;14.40;99.90
52979;DHT22;51106;53.186;6.598;2022-08-19T02:48:26;14.40;99.90
52979;DHT22;51106;53.186;6.598;2022-08-19T02:50:28;14.40;99.90
52979;DHT22;51106;53.186;6.598;2022-08-19T02:52:32;14.40;99.90
52979;DHT22;51106;53.186;6.598;2022-08-19T02:54:34;14.30;99.90
52979;DHT22;51106;53.186;6.598;2022-08-19T02:56:38;14.20;99.90
52979;DHT22;51106;53.186;6.598;2022-08-19T02:58:41;14.20;99.90
52979;DHT22;51106;53.186;6.598;2022-08-19T03:00:50;14.10;99.90
52979;DHT22;51106;53.186;6.598;2022-08-19T03:02:53;14.20;99.90
52979;DHT22;51106;53.186;6.598;2022-08-19T03:04:55;14.10;99.90
52979;DHT22;51106;53.186;6.598;2022-08-19T03:06:57;14.10;99.90
52979;DHT22;51106;53.186;6.598;2022-08-19T03:09:12;14.40;99.90
52979;DHT22;51106;53.186;6.598;2022-08-19T03:13:23;14.20;99.90
52979;DHT22;51106;53.186;6.598;2022-08-19T03:15:25;14.20;99.90
52979;DHT22;51106;53.186;6.598;2022-08-19T03:17:27;14.20;99.90
52979;DHT22;51106;53.186;6.598;2022-08-19T03:19:30;14.20;99.90
52979;DHT22;51106;53.186;6.598;2022-08-19T03:21:33;14.20;99.90
52979;DHT22;51106;53.186;6.598;2022-08-19T03:23:35;14.20;99.90
52979;DHT22;51106;53.186;6.598;2022-08-19T03:25:43;14.20;99.90
52979;DHT22;51106;53.186;6.598;2022-08-19T03:27:45;14.40;99.90
52979;DHT22;51106;53.186;6.598;2022-08-19T03:29:49;14.30;99.90
52979;DHT22;51106;53.186;6.598;2022-08-19T03:31:52;14.30;99.90
52979;DHT22;51106;53.186;6.598;2022-08-19T03:33:54;14.20;99.90
52979;DHT22;51106;53.186;6.598;2022-08-19T03:36:09;14.20;99.90
52979;DHT22;51106;53.186;6.598;2022-08-19T03:38:12;14.20;99.90
52979;DHT22;51106;53.186;6.598;2022-08-19T03:40:14;14.20;99.90
52979;DHT22;51106;53.186;6.598;2022-08-19T03:42:17;14.30;99.90
52979;DHT22;51106;53.186;6.598;2022-08-19T03:44:39;14.30;99.90
52979;DHT22;51106;53.186;6.598;2022-08-19T03:46:42;14.30;99.90
52979;DHT22;51106;53.186;6.598;2022-08-19T03:48:45;14.30;99.90
52979;DHT22;51106;53.186;6.598;2022-08-19T03:50:47;14.30;99.90
52979;DHT22;51106;53.186;6.598;2022-08-19T03:52:50;14.30;99.90
52979;DHT22;51106;53.186;6.598;2022-08-19T03:54:52;14.20;99.90
52979;DHT22;51106;53.186;6.598;2022-08-19T03:56:56;14.20;99.90
52979;DHT22;51106;53.186;6.598;2022-08-19T03:58:59;14.20;99.90
52979;DHT22;51106;53.186;6.598;2022-08-19T04:01:01;14.20;99.90
52979;DHT22;51106;53.186;6.598;2022-08-19T04:03:03;14.20;99.90
52979;DHT22;51106;53.186;6.598;2022-08-19T04:05:06;14.20;99.90
52979;DHT22;51106;53.186;6.598;2022-08-19T04:07:11;14.10;99.90
52979;DHT22;51106;53.186;6.598;2022-08-19T04:09:15;14.10;99.90
52979;DHT22;51106;53.186;6.598;2022-08-19T04:11:20;14.10;99.90
52979;DHT22;51106;53.186;6.598;2022-08-19T04:13:43;14.10;99.90
52979;DHT22;51106;53.186;6.598;2022-08-19T04:15:46;14.10;99.90
52979;DHT22;51106;53.186;6.598;2022-08-19T04:17:48;14.10;99.90
52979;DHT22;51106;53.186;6.598;2022-08-19T04:19:50;14.10;99.90
52979;DHT22;51106;53.186;6.598;2022-08-19T04:21:54;14.00;99.90
52979;DHT22;51106;53.186;6.598;2022-08-19T04:23:56;14.10;99.90
52979;DHT22;51106;53.186;6.598;2022-08-19T04:25:58;14.10;99.90
52979;DHT22;51106;53.186;6.598;2022-08-19T04:28:00;14.10;99.90
52979;DHT22;51106;53.186;6.598;2022-08-19T04:30:04;14.00;99.90
52979;DHT22;51106;53.186;6.598;2022-08-19T04:32:06;14.00;99.90
52979;DHT22;51106;53.186;6.598;2022-08-19T04:34:12;14.00;99.90
52979;DHT22;51106;53.186;6.598;2022-08-19T04:36:19;14.00;99.90
52979;DHT22;51106;53.186;6.598;2022-08-19T04:38:22;13.90;99.90
52979;DHT22;51106;53.186;6.598;2022-08-19T04:40:24;13.90;99.90
52979;DHT22;51106;53.186;6.598;2022-08-19T04:42:44;13.90;99.90
52979;DHT22;51106;53.186;6.598;2022-08-19T04:44:46;14.00;99.90
52979;DHT22;51106;53.186;6.598;2022-08-19T04:46:50;13.90;99.90
52979;DHT22;51106;53.186;6.598;2022-08-19T04:48:52;13.90;99.90
52979;DHT22;51106;53.186;6.598;2022-08-19T04:50:56;13.80;99.90
52979;DHT22;51106;53.186;6.598;2022-08-19T04:53:01;13.80;99.90
52979;DHT22;51106;53.186;6.598;2022-08-19T04:55:05;13.80;99.90
52979;DHT22;51106;53.186;6.598;2022-08-19T04:57:09;13.70;99.90
52979;DHT22;51106;53.186;6.598;2022-08-19T04:59:12;13.70;99.90
52979;DHT22;51106;53.186;6.598;2022-08-19T05:01:34;13.70;99.90
52979;DHT22;51106;53.186;6.598;2022-08-19T05:03:42;13.70;99.90
52979;DHT22;51106;53.186;6.598;2022-08-19T05:05:46;13.80;99.90
52979;DHT22;51106;53.186;6.598;2022-08-19T05:07:50;13.80;99.90
52979;DHT22;51106;53.186;6.598;2022-08-19T05:09:52;13.90;99.90
52979;DHT22;51106;53.186;6.598;2022-08-19T05:11:59;13.90;99.90
52979;DHT22;51106;53.186;6.598;2022-08-19T05:14:02;14.00;99.90
52979;DHT22;51106;53.186;6.598;2022-08-19T05:16:05;14.00;99.90
52979;DHT22;51106;53.186;6.598;2022-08-19T05:18:07;14.10;99.90
52979;DHT22;51106;53.186;6.598;2022-08-19T05:20:27;14.20;99.90
52979;DHT22;51106;53.186;6.598;2022-08-19T05:22:48;14.40;99.90
52979;DHT22;51106;53.186;6.598;2022-08-19T05:24:50;14.50;99.90
52979;DHT22;51106;53.186;6.598;2022-08-19T05:27:12;14.60;99.90
52979;DHT22;51106;53.186;6.598;2022-08-19T05:29:15;14.70;99.90
52979;DHT22;51106;53.186;6.598;2022-08-19T05:31:19;14.80;99.90
52979;DHT22;51106;53.186;6.598;2022-08-19T05:33:22;14.90;99.90
52979;DHT22;51106;53.186;6.598;2022-08-19T05:35:24;15.00;99.90
52979;DHT22;51106;53.186;6.598;2022-08-19T05:37:26;15.10;99.90
52979;DHT22;51106;53.186;6.598;2022-08-19T05:39:33;15.20;99.90
52979;DHT22;51106;53.186;6.598;2022-08-19T05:41:35;15.20;99.90
52979;DHT22;51106;53.186;6.598;2022-08-19T05:43:37;15.40;99.90
52979;DHT22;51106;53.186;6.598;2022-08-19T05:45:40;15.40;99.90
52979;DHT22;51106;53.186;6.598;2022-08-19T05:47:43;15.60;99.90
52979;DHT22;51106;53.186;6.598;2022-08-19T05:49:47;15.60;99.90
52979;DHT22;51106;53.186;6.598;2022-08-19T05:51:51;15.70;99.90
52979;DHT22;51106;53.186;6.598;2022-08-19T05:53:54;15.80;99.90
52979;DHT22;51106;53.186;6.598;2022-08-19T05:55:56;15.90;99.90
52979;DHT22;51106;53.186;6.598;2022-08-19T05:58:01;16.00;99.90
52979;DHT22;51106;53.186;6.598;2022-08-19T06:00:05;16.10;99.90
52979;DHT22;51106;53.186;6.598;2022-08-19T06:02:11;16.20;99.90
52979;DHT22;51106;53.186;6.598;2022-08-19T06:04:13;16.30;99.90
52979;DHT22;51106;53.186;6.598;2022-08-19T06:06:15;16.40;99.90
52979;DHT22;51106;53.186;6.598;2022-08-19T06:08:18;16.40;99.90
52979;DHT22;51106;53.186;6.598;2022-08-19T06:10:20;16.50;99.90
52979;DHT22;51106;53.186;6.598;2022-08-19T06:12:23;16.60;99.90
52979;DHT22;51106;53.186;6.598;2022-08-19T06:14:32;16.70;99.90
52979;DHT22;51106;53.186;6.598;2022-08-19T06:16:42;16.80;99.90
52979;DHT22;51106;53.186;6.598;2022-08-19T06:18:44;17.00;99.90
52979;DHT22;51106;53.186;6.598;2022-08-19T06:20:47;17.00;99.90
52979;DHT22;51106;53.186;6.598;2022-08-19T06:22:58;17.20;99.90
52979;DHT22;51106;53.186;6.598;2022-08-19T06:25:03;17.30;99.90
52979;DHT22;51106;53.186;6.598;2022-08-19T06:27:05;17.40;99.90
52979;DHT22;51106;53.186;6.598;2022-08-19T06:29:09;17.60;99.90
52979;DHT22;51106;53.186;6.598;2022-08-19T06:31:27;17.70;99.90
52979;DHT22;51106;53.186;6.598;2022-08-19T06:33:30;17.80;99.90
52979;DHT22;51106;53.186;6.598;2022-08-19T06:35:39;17.90;99.90
52979;DHT22;51106;53.186;6.598;2022-08-19T06:37:41;18.10;99.90
52979;DHT22;51106;53.186;6.598;2022-08-19T06:39:44;18.20;99.90
52979;DHT22;51106;53.186;6.598;2022-08-19T06:41:49;18.20;99.90
52979;DHT22;51106;53.186;6.598;2022-08-19T06:43:57;18.50;99.90
52979;DHT22;51106;53.186;6.598;2022-08-19T06:45:59;18.60;99.90
52979;DHT22;51106;53.186;6.598;2022-08-19T06:48:03;18.70;99.90
52979;DHT22;51106;53.186;6.598;2022-08-19T06:50:06;18.80;99.90
52979;DHT22;51106;53.186;6.598;2022-08-19T06:52:08;18.90;99.90
52979;DHT22;51106;53.186;6.598;2022-08-19T06:54:16;19.00;99.90
52979;DHT22;51106;53.186;6.598;2022-08-19T06:56:24;19.10;99.90
52979;DHT22;51106;53.186;6.598;2022-08-19T06:58:30;19.10;99.90
52979;DHT22;51106;53.186;6.598;2022-08-19T07:00:34;19.20;99.90
52979;DHT22;51106;53.186;6.598;2022-08-19T07:02:37;19.20;99.90
52979;DHT22;51106;53.186;6.598;2022-08-19T07:04:41;19.40;99.90
52979;DHT22;51106;53.186;6.598;2022-08-19T07:06:44;19.50;99.90
52979;DHT22;51106;53.186;6.598;2022-08-19T07:08:55;19.60;99.90
52979;DHT22;51106;53.186;6.598;2022-08-19T07:11:00;19.70;99.90
52979;DHT22;51106;53.186;6.598;2022-08-19T07:13:02;19.80;99.90
52979;DHT22;51106;53.186;6.598;2022-08-19T07:15:05;20.00;99.90
52979;DHT22;51106;53.186;6.598;2022-08-19T07:17:11;20.00;99.90
52979;DHT22;51106;53.186;6.598;2022-08-19T07:19:13;20.10;99.90
52979;DHT22;51106;53.186;6.598;2022-08-19T07:21:23;20.10;99.90
52979;DHT22;51106;53.186;6.598;2022-08-19T07:23:30;20.30;99.90
52979;DHT22;51106;53.186;6.598;2022-08-19T07:25:32;20.30;99.90
52979;DHT22;51106;53.186;6.598;2022-08-19T07:27:34;20.40;99.90
52979;DHT22;51106;53.186;6.598;2022-08-19T07:29:36;20.50;99.90
52979;DHT22;51106;53.186;6.598;2022-08-19T07:31:39;20.60;99.90
52979;DHT22;51106;53.186;6.598;2022-08-19T07:33:45;20.80;99.90
52979;DHT22;51106;53.186;6.598;2022-08-19T07:35:48;20.80;99.90
52979;DHT22;51106;53.186;6.598;2022-08-19T07:37:51;20.90;99.90
52979;DHT22;51106;53.186;6.598;2022-08-19T07:39:55;21.00;99.90
52979;DHT22;51106;53.186;6.598;2022-08-19T07:41:59;21.10;99.90
52979;DHT22;51106;53.186;6.598;2022-08-19T07:44:02;21.20;99.90
52979;DHT22;51106;53.186;6.598;2022-08-19T07:46:05;21.30;99.90
52979;DHT22;51106;53.186;6.598;2022-08-19T07:48:08;21.40;99.90
52979;DHT22;51106;53.186;6.598;2022-08-19T07:50:10;21.50;99.90
52979;DHT22;51106;53.186;6.598;2022-08-19T07:52:13;21.60;99.90
52979;DHT22;51106;53.186;6.598;2022-08-19T07:54:17;21.60;99.90
52979;DHT22;51106;53.186;6.598;2022-08-19T07:56:23;21.70;99.90
52979;DHT22;51106;53.186;6.598;2022-08-19T07:58:25;21.70;99.90
52979;DHT22;51106;53.186;6.598;2022-08-19T08:00:27;21.80;99.90
52979;DHT22;51106;53.186;6.598;2022-08-19T08:02:29;21.90;99.90
52979;DHT22;51106;53.186;6.598;2022-08-19T08:04:31;21.90;99.90
52979;DHT22;51106;53.186;6.598;2022-08-19T08:06:53;22.00;99.90
52979;DHT22;51106;53.186;6.598;2022-08-19T08:09:15;22.10;99.90
52979;DHT22;51106;53.186;6.598;2022-08-19T08:11:46;22.20;99.90
52979;DHT22;51106;53.186;6.598;2022-08-19T08:13:51;22.20;99.90
52979;DHT22;51106;53.186;6.598;2022-08-19T08:16:05;22.20;99.90
52979;DHT22;51106;53.186;6.598;2022-08-19T08:18:14;22.20;99.90
52979;DHT22;51106;53.186;6.598;2022-08-19T08:20:18;22.30;99.90
52979;DHT22;51106;53.186;6.598;2022-08-19T08:22:21;22.30;99.90
52979;DHT22;51106;53.186;6.598;2022-08-19T08:24:42;22.40;99.90
52979;DHT22;51106;53.186;6.598;2022-08-19T08:26:44;22.60;99.90
52979;DHT22;51106;53.186;6.598;2022-08-19T08:28:53;22.70;99.90
52979;DHT22;51106;53.186;6.598;2022-08-19T08:30:56;22.70;99.90
52979;DHT22;51106;53.186;6.598;2022-08-19T08:32:59;22.80;99.90
52979;DHT22;51106;53.186;6.598;2022-08-19T08:35:05;22.90;99.90
52979;DHT22;51106;53.186;6.598;2022-08-19T08:37:10;23.00;99.20
52979;DHT22;51106;53.186;6.598;2022-08-19T08:39:19;23.00;98.90
52979;DHT22;51106;53.186;6.598;2022-08-19T08:41:47;23.10;99.20
52979;DHT22;51106;53.186;6.598;2022-08-19T08:43:52;23.20;98.70
52979;DHT22;51106;53.186;6.598;2022-08-19T08:45:57;23.30;97.10
52979;DHT22;51106;53.186;6.598;2022-08-19T08:50:29;23.30;95.90
52979;DHT22;51106;53.186;6.598;2022-08-19T08:52:43;23.30;95.70
52979;DHT22;51106;53.186;6.598;2022-08-19T08:54:47;23.40;96.10
52979;DHT22;51106;53.186;6.598;2022-08-19T08:56:57;23.40;94.80
52979;DHT22;51106;53.186;6.598;2022-08-19T08:59:10;23.40;95.60
52979;DHT22;51106;53.186;6.598;2022-08-19T09:01:14;23.50;96.40
52979;DHT22;51106;53.186;6.598;2022-08-19T09:03:21;23.70;96.50
52979;DHT22;51106;53.186;6.598;2022-08-19T09:12:53;24.10;93.70
52979;DHT22;51106;53.186;6.598;2022-08-19T09:15:06;24.10;93.80
52979;DHT22;51106;53.186;6.598;2022-08-19T09:17:09;24.10;94.20
52979;DHT22;51106;53.186;6.598;2022-08-19T09:19:11;24.20;94.40
52979;DHT22;51106;53.186;6.598;2022-08-19T09:21:15;24.40;94.10
52979;DHT22;51106;53.186;6.598;2022-08-19T09:23:17;24.40;93.90
52979;DHT22;51106;53.186;6.598;2022-08-19T09:25:28;24.50;94.30
52979;DHT22;51106;53.186;6.598;2022-08-19T09:27:30;24.60;93.80
52979;DHT22;51106;53.186;6.598;2022-08-19T09:29:44;24.80;93.90
52979;DHT22;51106;53.186;6.598;2022-08-19T09:31:47;24.90;93.00
52979;DHT22;51106;53.186;6.598;2022-08-19T09:33:50;24.90;91.80
52979;DHT22;51106;53.186;6.598;2022-08-19T09:36:04;24.90;90.90
52979;DHT22;51106;53.186;6.598;2022-08-19T09:38:09;24.90;91.60
52979;DHT22;51106;53.186;6.598;2022-08-19T09:40:12;24.90;91.70
52979;DHT22;51106;53.186;6.598;2022-08-19T09:42:14;24.90;91.80
52979;DHT22;51106;53.186;6.598;2022-08-19T09:44:30;24.90;91.30
52979;DHT22;51106;53.186;6.598;2022-08-19T09:46:32;24.90;91.60
52979;DHT22;51106;53.186;6.598;2022-08-19T09:48:41;24.90;91.00
52979;DHT22;51106;53.186;6.598;2022-08-19T09:50:44;25.00;91.10
52979;DHT22;51106;53.186;6.598;2022-08-19T09:52:52;25.10;91.10
52979;DHT22;51106;53.186;6.598;2022-08-19T09:54:58;25.20;90.60
52979;DHT22;51106;53.186;6.598;2022-08-19T09:57:07;25.30;90.30
52979;DHT22;51106;53.186;6.598;2022-08-19T09:59:10;25.40;90.60
52979;DHT22;51106;53.186;6.598;2022-08-19T10:01:21;25.40;90.50
52979;DHT22;51106;53.186;6.598;2022-08-19T10:03:26;25.60;90.80
52979;DHT22;51106;53.186;6.598;2022-08-19T10:05:33;25.70;90.40
52979;DHT22;51106;53.186;6.598;2022-08-19T10:07:56;25.80;89.50
52979;DHT22;51106;53.186;6.598;2022-08-19T10:09:58;25.80;89.00
52979;DHT22;51106;53.186;6.598;2022-08-19T10:12:01;25.90;88.70
52979;DHT22;51106;53.186;6.598;2022-08-19T10:14:04;25.90;84.70
52979;DHT22;51106;53.186;6.598;2022-08-19T10:16:10;25.90;84.70
52979;DHT22;51106;53.186;6.598;2022-08-19T10:18:13;25.90;83.90
52979;DHT22;51106;53.186;6.598;2022-08-19T10:20:16;26.00;84.80
52979;DHT22;51106;53.186;6.598;2022-08-19T10:22:18;26.00;84.20
52979;DHT22;51106;53.186;6.598;2022-08-19T10:24:21;26.00;84.90
52979;DHT22;51106;53.186;6.598;2022-08-19T10:26:28;26.10;85.50
52979;DHT22;51106;53.186;6.598;2022-08-19T10:28:30;26.10;81.10
52979;DHT22;51106;53.186;6.598;2022-08-19T10:30:35;26.10;81.80
52979;DHT22;51106;53.186;6.598;2022-08-19T10:32:38;26.10;81.00
52979;DHT22;51106;53.186;6.598;2022-08-19T10:34:47;26.10;76.10
52979;DHT22;51106;53.186;6.598;2022-08-19T10:36:50;26.10;80.40
52979;DHT22;51106;53.186;6.598;2022-08-19T10:39:04;26.10;78.50
52979;DHT22;51106;53.186;6.598;2022-08-19T10:41:09;26.10;77.00
52979;DHT22;51106;53.186;6.598;2022-08-19T10:43:11;26.10;78.80
52979;DHT22;51106;53.186;6.598;2022-08-19T10:45:13;26.10;78.30
52979;DHT22;51106;53.186;6.598;2022-08-19T10:47:16;26.20;79.90
52979;DHT22;51106;53.186;6.598;2022-08-19T10:49:27;26.30;82.10
52979;DHT22;51106;53.186;6.598;2022-08-19T10:51:31;26.40;79.40
52979;DHT22;51106;53.186;6.598;2022-08-19T10:53:52;26.40;79.20
52979;DHT22;51106;53.186;6.598;2022-08-19T10:55:54;26.50;80.50
52979;DHT22;51106;53.186;6.598;2022-08-19T10:58:17;26.70;80.10
52979;DHT22;51106;53.186;6.598;2022-08-19T11:00:23;26.70;78.60
52979;DHT22;51106;53.186;6.598;2022-08-19T11:02:26;26.80;78.40
52979;DHT22;51106;53.186;6.598;2022-08-19T11:04:28;26.80;74.80
52979;DHT22;51106;53.186;6.598;2022-08-19T11:06:33;26.70;73.10
52979;DHT22;51106;53.186;6.598;2022-08-19T11:08:36;26.70;71.10
52979;DHT22;51106;53.186;6.598;2022-08-19T11:10:42;26.60;73.90
52979;DHT22;51106;53.186;6.598;2022-08-19T11:12:51;26.50;76.00
52979;DHT22;51106;53.186;6.598;2022-08-19T11:14:56;26.60;78.20
52979;DHT22;51106;53.186;6.598;2022-08-19T11:16:58;26.80;77.00
52979;DHT22;51106;53.186;6.598;2022-08-19T11:19:00;27.00;79.80
52979;DHT22;51106;53.186;6.598;2022-08-19T11:21:13;27.10;78.80
52979;DHT22;51106;53.186;6.598;2022-08-19T11:23:15;27.00;75.80
52979;DHT22;51106;53.186;6.598;2022-08-19T11:25:17;26.80;73.60
52979;DHT22;51106;53.186;6.598;2022-08-19T11:27:19;26.50;76.10
52979;DHT22;51106;53.186;6.598;2022-08-19T11:29:21;26.40;79.50
52979;DHT22;51106;53.186;6.598;2022-08-19T11:31:30;26.50;82.00
52979;DHT22;51106;53.186;6.598;2022-08-19T11:33:32;26.60;83.80
52979;DHT22;51106;53.186;6.598;2022-08-19T11:35:39;26.70;79.10
52979;DHT22;51106;53.186;6.598;2022-08-19T11:37:41;26.50;77.30
52979;DHT22;51106;53.186;6.598;2022-08-19T11:39:43;26.30;79.40
52979;DHT22;51106;53.186;6.598;2022-08-19T11:41:54;26.30;81.00
52979;DHT22;51106;53.186;6.598;2022-08-19T11:43:56;26.30;80.30
52979;DHT22;51106;53.186;6.598;2022-08-19T11:45:59;26.20;78.30
52979;DHT22;51106;53.186;6.598;2022-08-19T11:48:01;26.10;79.10
52979;DHT22;51106;53.186;6.598;2022-08-19T11:50:04;25.90;79.60
52979;DHT22;51106;53.186;6.598;2022-08-19T11:52:09;25.80;81.80
52979;DHT22;51106;53.186;6.598;2022-08-19T11:54:14;25.70;83.80
52979;DHT22;51106;53.186;6.598;2022-08-19T11:56:17;25.60;82.10
52979;DHT22;51106;53.186;6.598;2022-08-19T11:58:19;25.50;82.90
52979;DHT22;51106;53.186;6.598;2022-08-19T12:00:21;25.40;84.00
52979;DHT22;51106;53.186;6.598;2022-08-19T12:02:23;25.40;84.30
52979;DHT22;51106;53.186;6.598;2022-08-19T12:04:25;25.30;86.40
52979;DHT22;51106;53.186;6.598;2022-08-19T12:06:30;25.30;87.40
52979;DHT22;51106;53.186;6.598;2022-08-19T12:08:34;25.40;87.10
52979;DHT22;51106;53.186;6.598;2022-08-19T12:10:36;25.40;85.80
52979;DHT22;51106;53.186;6.598;2022-08-19T12:12:38;25.40;84.80
52979;DHT22;51106;53.186;6.598;2022-08-19T12:14:44;25.40;84.10
52979;DHT22;51106;53.186;6.598;2022-08-19T12:16:48;25.40;86.20
52979;DHT22;51106;53.186;6.598;2022-08-19T12:18:54;25.40;87.00
52979;DHT22;51106;53.186;6.598;2022-08-19T12:20:57;25.40;87.20
52979;DHT22;51106;53.186;6.598;2022-08-19T12:22:59;25.40;86.70
52979;DHT22;51106;53.186;6.598;2022-08-19T12:25:01;25.40;85.00
52979;DHT22;51106;53.186;6.598;2022-08-19T12:27:03;25.40;84.20
52979;DHT22;51106;53.186;6.598;2022-08-19T12:29:05;25.40;85.30
52979;DHT22;51106;53.186;6.598;2022-08-19T12:31:07;25.40;84.20
52979;DHT22;51106;53.186;6.598;2022-08-19T12:33:13;25.50;85.00
52979;DHT22;51106;53.186;6.598;2022-08-19T12:35:15;25.60;85.30
52979;DHT22;51106;53.186;6.598;2022-08-19T12:37:17;25.60;85.30
52979;DHT22;51106;53.186;6.598;2022-08-19T12:39:19;25.60;85.20
52979;DHT22;51106;53.186;6.598;2022-08-19T12:41:21;25.60;84.80
52979;DHT22;51106;53.186;6.598;2022-08-19T12:43:24;25.60;86.10
52979;DHT22;51106;53.186;6.598;2022-08-19T12:45:26;25.60;86.30
52979;DHT22;51106;53.186;6.598;2022-08-19T12:47:28;25.60;83.60
52979;DHT22;51106;53.186;6.598;2022-08-19T12:49:34;25.50;82.30
52979;DHT22;51106;53.186;6.598;2022-08-19T12:51:55;25.50;81.80
52979;DHT22;51106;53.186;6.598;2022-08-19T12:53:58;25.60;81.90
52979;DHT22;51106;53.186;6.598;2022-08-19T12:56:00;25.50;79.90
52979;DHT22;51106;53.186;6.598;2022-08-19T12:58:02;25.50;81.40
52979;DHT22;51106;53.186;6.598;2022-08-19T13:00:11;25.50;81.10
52979;DHT22;51106;53.186;6.598;2022-08-19T13:02:15;25.50;81.30
52979;DHT22;51106;53.186;6.598;2022-08-19T13:04:17;25.50;82.50
52979;DHT22;51106;53.186;6.598;2022-08-19T13:06:20;25.50;84.70
52979;DHT22;51106;53.186;6.598;2022-08-19T13:08:23;25.50;83.40
52979;DHT22;51106;53.186;6.598;2022-08-19T13:10:31;25.50;82.60
52979;DHT22;51106;53.186;6.598;2022-08-19T13:12:36;25.50;82.00
52979;DHT22;51106;53.186;6.598;2022-08-19T13:14:39;25.50;82.50
52979;DHT22;51106;53.186;6.598;2022-08-19T13:16:42;25.50;82.80
52979;DHT22;51106;53.186;6.598;2022-08-19T13:18:45;25.50;83.40
52979;DHT22;51106;53.186;6.598;2022-08-19T13:20:54;25.50;83.60
52979;DHT22;51106;53.186;6.598;2022-08-19T13:22:56;25.40;82.40